createdAt,value
2019-03-03T00:01:09.288Z,95.80
2019-03-03T00:03:57.025Z,95.50
2019-03-03T00:06:44.985Z,95.50
2019-03-03T00:09:32.814Z,95.40
2019-03-03T00:12:20.576Z,95.40
2019-03-03T00:15:08.629Z,95.60
2019-03-03T00:17:56.619Z,95.60
2019-03-03T00:20:45.092Z,95.70
2019-03-03T00:23:32.995Z,95.70
2019-03-03T00:26:20.424Z,96.00
2019-03-03T00:29:08.393Z,95.80
2019-03-03T00:31:56.279Z,95.90
2019-03-03T00:34:44.018Z,96.20
2019-03-03T00:37:41.228Z,96.10
2019-03-03T00:40:47.937Z,96.30
2019-03-03T00:43:51.218Z,96.50
2019-03-03T00:47:00.604Z,96.60
2019-03-03T00:49:57.862Z,97.00
2019-03-03T00:53:03.332Z,96.90
2019-03-03T00:56:09.614Z,97.00
2019-03-03T00:59:20.376Z,97.00
2019-03-03T01:02:14.861Z,97.00
2019-03-03T01:05:18.286Z,96.90
2019-03-03T01:08:30.913Z,97.10
2019-03-03T01:11:34.888Z,96.90
2019-03-03T01:14:41.854Z,97.00
2019-03-03T01:17:38.716Z,97.10
2019-03-03T01:20:57.828Z,96.80
2019-03-03T01:23:56.523Z,96.80
2019-03-03T01:26:44.265Z,96.90
2019-03-03T01:29:31.925Z,97.10
2019-03-03T01:32:19.304Z,97.20
2019-03-03T01:35:07.698Z,97.30
2019-03-03T01:37:55.420Z,97.20
2019-03-03T01:40:43.225Z,97.20
2019-03-03T01:43:31.049Z,96.80
2019-03-03T01:46:18.686Z,97.10
2019-03-03T01:49:06.640Z,97.10
2019-03-03T01:51:54.677Z,96.70
2019-03-03T01:54:42.180Z,96.80
2019-03-03T01:57:30.313Z,97.00
2019-03-03T02:00:21.238Z,97.10
2019-03-03T02:03:09.126Z,97.10
2019-03-03T02:05:56.723Z,97.00
2019-03-03T02:08:44.656Z,97.00
2019-03-03T02:11:32.794Z,96.60
2019-03-03T02:14:20.496Z,96.80
2019-03-03T02:17:09.301Z,96.60
2019-03-03T02:19:56.753Z,96.40
2019-03-03T02:22:44.546Z,96.30
2019-03-03T02:25:32.732Z,96.50
2019-03-03T02:28:20.330Z,96.60
2019-03-03T02:31:07.790Z,96.50
2019-03-03T02:33:55.821Z,96.50
2019-03-03T02:36:43.614Z,96.30
2019-03-03T02:39:31.447Z,96.30
2019-03-03T02:42:19.081Z,96.10
2019-03-03T02:45:07.444Z,96.30
2019-03-03T02:47:55.137Z,96.50
2019-03-03T02:50:42.585Z,96.40
2019-03-03T02:53:29.906Z,96.40
2019-03-03T02:56:18.148Z,96.40
2019-03-03T02:59:06.131Z,96.60
2019-03-03T03:02:02.854Z,96.20
2019-03-03T03:04:50.699Z,96.30
2019-03-03T03:07:51.721Z,96.30
2019-03-03T03:11:13.877Z,96.20
2019-03-03T03:14:17.189Z,96.20
2019-03-03T03:17:24.902Z,96.20
2019-03-03T03:20:20.411Z,96.20
2019-03-03T03:23:30.283Z,96.20
2019-03-03T03:26:29.891Z,96.30
2019-03-03T03:29:26.717Z,96.30
2019-03-03T03:32:19.574Z,96.10
2019-03-03T03:35:12.969Z,96.20
2019-03-03T03:38:25.638Z,96.10
2019-03-03T03:41:32.787Z,96.10
2019-03-03T03:44:26.816Z,96.20
2019-03-03T03:47:25.872Z,96.50
2019-03-03T03:50:23.435Z,96.10
2019-03-03T03:53:42.623Z,96.20
2019-03-03T03:56:48.444Z,96.20
2019-03-03T03:59:48.222Z,96.00
2019-03-03T04:02:54.083Z,95.90
2019-03-03T04:05:52.269Z,96.10
2019-03-03T04:09:05.376Z,96.10
2019-03-03T04:12:30.668Z,96.20
2019-03-03T04:15:32.775Z,96.30
2019-03-03T04:18:35.929Z,96.10
2019-03-03T04:21:45.604Z,96.20
2019-03-03T04:25:01.670Z,96.10
2019-03-03T04:28:08.156Z,96.00
2019-03-03T04:31:10.882Z,95.90
2019-03-03T04:34:09.027Z,95.90
2019-03-03T04:37:15.690Z,95.80
2019-03-03T04:40:11.223Z,95.70
2019-03-03T04:43:21.453Z,95.70
2019-03-03T04:46:24.291Z,95.70
2019-03-03T04:49:26.125Z,95.80
2019-03-03T04:52:34.647Z,95.70
2019-03-03T04:55:56.987Z,95.80
2019-03-03T04:58:53.956Z,95.70
2019-03-03T05:01:59.555Z,95.70
2019-03-03T05:04:55.928Z,95.70
2019-03-03T05:07:58.405Z,96.10
2019-03-03T05:11:07.860Z,95.80
2019-03-03T05:14:03.977Z,95.90
2019-03-03T05:16:59.178Z,95.80
2019-03-03T05:19:51.538Z,96.40
2019-03-03T05:22:39.598Z,96.50
2019-03-03T05:25:27.527Z,96.60
2019-03-03T05:28:15.201Z,96.40
2019-03-03T05:31:02.581Z,96.30
2019-03-03T05:33:50.308Z,96.20
2019-03-03T05:36:37.869Z,96.10
2019-03-03T05:39:25.693Z,95.90
2019-03-03T05:42:13.689Z,95.70
2019-03-03T05:45:01.366Z,95.60
2019-03-03T05:47:49.101Z,95.40
2019-03-03T05:50:36.712Z,95.40
2019-03-03T05:53:24.058Z,95.40
2019-03-03T05:56:11.914Z,95.50
2019-03-03T05:58:59.613Z,95.50
2019-03-03T06:01:47.645Z,95.40
2019-03-03T06:04:34.987Z,95.60
2019-03-03T06:07:22.608Z,95.50
2019-03-03T06:10:10.856Z,95.60
2019-03-03T06:12:58.806Z,95.70
2019-03-03T06:15:46.645Z,95.60
2019-03-03T06:18:34.569Z,96.00
2019-03-03T06:21:22.189Z,96.20
2019-03-03T06:24:09.775Z,96.40
2019-03-03T06:26:57.649Z,96.60
2019-03-03T06:29:45.678Z,96.40
2019-03-03T06:32:33.377Z,96.40
2019-03-03T06:35:21.473Z,96.50
2019-03-03T06:38:09.345Z,96.60
2019-03-03T06:40:57.480Z,96.70
2019-03-03T06:43:45.612Z,96.70
2019-03-03T06:46:33.363Z,96.80
2019-03-03T06:49:21.340Z,97.00
2019-03-03T06:52:09.483Z,97.70
2019-03-03T06:54:56.745Z,97.70
2019-03-03T06:57:44.218Z,97.50
2019-03-03T07:00:31.658Z,97.40
2019-03-03T07:03:19.686Z,97.30
2019-03-03T07:06:07.643Z,97.80
2019-03-03T07:08:55.309Z,97.80
2019-03-03T07:11:42.725Z,97.80
2019-03-03T07:14:30.437Z,97.50
2019-03-03T07:17:18.212Z,96.70
2019-03-03T07:20:07.044Z,97.00
2019-03-03T07:22:55.024Z,96.20
2019-03-03T07:25:46.020Z,96.40
2019-03-03T07:28:33.619Z,95.20
2019-03-03T07:31:21.320Z,94.80
2019-03-03T07:34:08.872Z,94.80
2019-03-03T07:36:56.603Z,94.60
2019-03-03T07:39:44.315Z,94.40
2019-03-03T07:42:31.698Z,94.30
2019-03-03T07:45:19.103Z,94.50
2019-03-03T07:48:07.307Z,94.70
2019-03-03T07:50:55.369Z,94.60
2019-03-03T07:53:43.290Z,94.70
2019-03-03T07:56:30.842Z,94.50
2019-03-03T07:59:18.764Z,94.50
2019-03-03T08:02:06.744Z,94.00
2019-03-03T08:04:54.730Z,93.60
2019-03-03T08:07:43.541Z,93.70
2019-03-03T08:10:31.558Z,93.60
2019-03-03T08:13:19.276Z,93.20
2019-03-03T08:16:07.299Z,93.30
2019-03-03T08:18:55.159Z,92.40
2019-03-03T08:21:43.308Z,91.80
2019-03-03T08:24:31.178Z,91.70
2019-03-03T08:27:19.251Z,89.90
2019-03-03T08:30:08.120Z,89.20
2019-03-03T08:32:55.820Z,90.40
2019-03-03T08:35:43.817Z,90.00
2019-03-03T08:38:31.801Z,87.80
2019-03-03T08:41:19.542Z,87.80
2019-03-03T08:44:11.313Z,86.80
2019-03-03T08:47:08.623Z,86.20
2019-03-03T08:50:06.575Z,87.40
2019-03-03T08:53:11.753Z,87.00
2019-03-03T08:56:17.671Z,86.30
2019-03-03T08:59:12.923Z,86.50
2019-03-03T09:02:11.347Z,87.20
2019-03-03T09:05:05.714Z,86.90
2019-03-03T09:08:14.688Z,84.70
2019-03-03T09:11:21.558Z,84.40
2019-03-03T09:14:27.773Z,84.30
2019-03-03T09:17:41.012Z,83.80
2019-03-03T09:20:43.352Z,82.60
2019-03-03T09:23:59.648Z,83.80
2019-03-03T09:27:06.004Z,83.10
2019-03-03T09:30:15.914Z,81.70
2019-03-03T09:33:21.333Z,82.70
2019-03-03T09:36:43.398Z,81.30
2019-03-03T09:39:40.281Z,83.00
2019-03-03T09:42:38.786Z,80.20
2019-03-03T09:45:50.455Z,79.30
2019-03-03T09:48:55.874Z,79.50
2019-03-03T09:51:58.379Z,79.60
2019-03-03T09:55:04.619Z,79.20
2019-03-03T09:58:17.428Z,78.30
2019-03-03T10:01:24.600Z,77.30
2019-03-03T10:04:22.101Z,74.90
2019-03-03T10:07:21.329Z,73.10
2019-03-03T10:10:26.869Z,72.90
2019-03-03T10:13:21.102Z,72.90
2019-03-03T10:16:25.851Z,74.30
2019-03-03T10:19:31.852Z,73.90
2019-03-03T10:22:41.304Z,71.60
2019-03-03T10:25:48.092Z,73.20
2019-03-03T10:28:46.845Z,70.10
2019-03-03T10:31:42.863Z,70.00
2019-03-03T10:34:52.996Z,71.70
2019-03-03T10:38:02.797Z,73.90
2019-03-03T10:41:25.174Z,71.40
2019-03-03T10:44:31.024Z,69.00
2019-03-03T10:47:34.376Z,68.60
2019-03-03T10:50:43.025Z,69.80
2019-03-03T10:53:52.221Z,67.00
2019-03-03T10:57:02.234Z,68.00
2019-03-03T11:00:21.154Z,67.20
2019-03-03T11:03:27.919Z,65.80
2019-03-03T11:06:24.165Z,66.50
2019-03-03T11:09:40.631Z,65.10
2019-03-03T11:12:37.863Z,64.60
2019-03-03T11:15:50.536Z,66.10
2019-03-03T11:18:56.381Z,65.60
2019-03-03T11:21:55.516Z,66.50
2019-03-03T11:25:00.589Z,63.10
2019-03-03T11:28:06.898Z,62.40
2019-03-03T11:31:07.284Z,64.30
2019-03-03T11:34:17.983Z,65.30
2019-03-03T11:37:14.110Z,66.10
2019-03-03T11:40:18.245Z,66.00
2019-03-03T11:43:25.767Z,62.30
2019-03-03T11:46:32.791Z,61.40
2019-03-03T11:49:28.985Z,63.50
2019-03-03T11:52:41.985Z,61.00
2019-03-03T11:55:46.908Z,60.30
2019-03-03T11:58:52.476Z,60.90
2019-03-03T12:01:58.333Z,61.10
2019-03-03T12:05:05.700Z,62.60
2019-03-03T12:08:30.938Z,62.10
2019-03-03T12:11:36.116Z,62.10
2019-03-03T12:14:41.596Z,62.60
2019-03-03T12:17:51.041Z,61.40
2019-03-03T12:21:03.898Z,61.00
2019-03-03T12:23:57.841Z,60.50
2019-03-03T12:27:20.154Z,62.50
2019-03-03T12:30:26.162Z,60.80
2019-03-03T12:33:21.988Z,60.00
2019-03-03T12:36:27.815Z,60.20
2019-03-03T12:39:23.785Z,58.60
2019-03-03T12:42:29.151Z,60.60
2019-03-03T12:45:38.867Z,60.90
2019-03-03T12:48:46.003Z,58.30
2019-03-03T12:51:53.083Z,59.10
2019-03-03T12:54:53.684Z,60.80
2019-03-03T12:57:51.913Z,58.50
2019-03-03T13:00:51.478Z,59.10
2019-03-03T13:03:53.668Z,58.10
2019-03-03T13:07:18.962Z,57.50
2019-03-03T13:10:23.400Z,58.60
2019-03-03T13:13:29.049Z,56.00
2019-03-03T13:16:51.088Z,55.40
2019-03-03T13:19:56.685Z,55.10
2019-03-03T13:22:51.320Z,55.90
2019-03-03T13:26:13.862Z,54.60
2019-03-03T13:29:26.765Z,55.20
2019-03-03T13:32:32.685Z,54.40
2019-03-03T13:35:42.556Z,54.60
2019-03-03T13:39:07.785Z,54.00
2019-03-03T13:42:11.545Z,48.70
2019-03-03T13:44:59.194Z,47.90
2019-03-03T13:47:46.793Z,47.50
2019-03-03T13:50:35.261Z,48.40
2019-03-03T13:53:23.273Z,49.50
2019-03-03T13:56:11.042Z,49.00
2019-03-03T13:58:58.665Z,49.60
2019-03-03T14:01:46.674Z,49.90
2019-03-03T14:04:34.650Z,48.80
2019-03-03T14:07:22.645Z,49.10
2019-03-03T14:10:10.680Z,49.50
2019-03-03T14:12:58.715Z,49.50
2019-03-03T14:15:46.527Z,49.60
2019-03-03T14:18:34.364Z,49.80
2019-03-03T14:21:22.447Z,50.00
2019-03-03T14:24:10.206Z,49.50
2019-03-03T14:26:57.745Z,49.90
2019-03-03T14:29:45.209Z,49.20
2019-03-03T14:32:32.889Z,50.00
2019-03-03T14:35:20.842Z,49.80
2019-03-03T14:38:08.658Z,49.70
2019-03-03T14:40:56.673Z,49.10
2019-03-03T14:43:44.517Z,49.80
2019-03-03T14:46:32.230Z,49.60
2019-03-03T14:49:19.887Z,50.40
2019-03-03T14:52:08.025Z,49.80
2019-03-03T14:54:55.666Z,50.80
2019-03-03T14:57:43.805Z,50.40
2019-03-03T15:00:33.708Z,50.90
2019-03-03T15:03:21.806Z,51.80
2019-03-03T15:06:09.742Z,50.70
2019-03-03T15:08:57.895Z,50.90
2019-03-03T15:11:45.726Z,51.50
2019-03-03T15:14:33.496Z,51.40
2019-03-03T15:17:22.375Z,51.80
2019-03-03T15:20:10.472Z,51.70
2019-03-03T15:22:58.178Z,52.40
2019-03-03T15:25:46.295Z,52.30
2019-03-03T15:28:34.478Z,52.30
2019-03-03T15:31:22.499Z,52.20
2019-03-03T15:34:10.359Z,53.00
2019-03-03T15:36:58.083Z,53.10
2019-03-03T15:39:46.051Z,53.00
2019-03-03T15:42:34.112Z,53.50
2019-03-03T15:45:24.311Z,53.70
2019-03-03T15:48:15.806Z,53.80
2019-03-03T15:51:03.393Z,55.00
2019-03-03T15:53:51.271Z,54.90
2019-03-03T15:56:39.217Z,55.50
2019-03-03T15:59:26.901Z,55.30
2019-03-03T16:02:14.948Z,53.90
2019-03-03T16:05:02.704Z,53.90
2019-03-03T16:07:50.946Z,54.00
2019-03-03T16:10:38.866Z,52.90
2019-03-03T16:13:26.758Z,53.80
2019-03-03T16:16:14.747Z,54.20
2019-03-03T16:19:02.977Z,54.70
2019-03-03T16:21:50.601Z,54.80
2019-03-03T16:24:38.036Z,55.00
2019-03-03T16:27:25.871Z,55.70
2019-03-03T16:30:17.768Z,56.20
2019-03-03T16:33:05.117Z,56.60
2019-03-03T16:35:52.501Z,56.80
2019-03-03T16:38:40.357Z,57.50
2019-03-03T16:41:27.976Z,59.20
2019-03-03T16:44:16.009Z,60.00
2019-03-03T16:47:03.994Z,60.10
2019-03-03T16:49:51.420Z,60.30
2019-03-03T16:52:39.156Z,61.10
2019-03-03T16:55:26.985Z,61.40
2019-03-03T16:58:14.684Z,61.60
2019-03-03T17:01:02.753Z,62.80
2019-03-03T17:03:50.608Z,64.30
2019-03-03T17:06:39.260Z,64.40
2019-03-03T17:09:28.362Z,63.60
2019-03-03T17:12:17.543Z,65.00
2019-03-03T17:15:10.069Z,65.00
2019-03-03T17:18:04.824Z,64.70
2019-03-03T17:20:52.490Z,63.30
2019-03-03T17:23:40.081Z,65.80
2019-03-03T17:26:28.144Z,64.70
2019-03-03T17:29:15.843Z,67.60
2019-03-03T17:32:03.304Z,68.60
2019-03-03T17:34:51.209Z,67.70
2019-03-03T17:37:39.064Z,68.80
2019-03-03T17:40:27.051Z,69.20
2019-03-03T17:43:14.445Z,69.60
2019-03-03T17:46:02.641Z,69.40
2019-03-03T17:48:50.328Z,69.50
2019-03-03T17:51:37.890Z,71.80
2019-03-03T17:54:26.163Z,73.10
2019-03-03T17:57:13.814Z,74.10
2019-03-03T18:00:01.592Z,75.10
2019-03-03T18:02:49.262Z,76.00
2019-03-03T18:05:36.935Z,77.50
2019-03-03T18:08:24.618Z,78.20
2019-03-03T18:11:12.257Z,78.80
2019-03-03T18:13:59.853Z,79.60
2019-03-03T18:16:47.472Z,79.00
2019-03-03T18:19:35.442Z,78.90
2019-03-03T18:22:23.460Z,79.40
2019-03-03T18:25:12.247Z,79.10
2019-03-03T18:28:00.031Z,79.50
2019-03-03T18:30:47.898Z,80.00
2019-03-03T18:33:35.499Z,80.20
2019-03-03T18:36:23.317Z,80.30
2019-03-03T18:39:11.088Z,80.60
2019-03-03T18:41:58.536Z,80.00
2019-03-03T18:44:46.356Z,79.80
2019-03-03T18:47:34.358Z,79.00
2019-03-03T18:50:22.080Z,79.00
2019-03-03T18:53:10.937Z,79.30
2019-03-03T18:55:58.633Z,79.20
2019-03-03T18:58:45.960Z,80.10
2019-03-03T19:01:33.324Z,80.50
2019-03-03T19:04:21.241Z,80.10
2019-03-03T19:07:08.797Z,80.30
2019-03-03T19:09:56.070Z,80.40
2019-03-03T19:12:44.176Z,80.10
2019-03-03T19:15:33.321Z,81.40
2019-03-03T19:18:20.818Z,80.50
2019-03-03T19:21:08.927Z,80.80
2019-03-03T19:23:56.670Z,81.40
2019-03-03T19:26:44.087Z,81.50
2019-03-03T19:29:31.737Z,82.30
2019-03-03T19:32:19.709Z,81.60
2019-03-03T19:35:08.217Z,82.30
2019-03-03T19:37:56.424Z,82.40
2019-03-03T19:40:44.233Z,82.40
2019-03-03T19:43:31.999Z,83.40
2019-03-03T19:46:20.388Z,84.60
2019-03-03T19:49:08.234Z,85.10
2019-03-03T19:51:55.969Z,85.10
2019-03-03T19:54:43.663Z,85.20
2019-03-03T19:57:31.077Z,85.40
2019-03-03T20:00:21.405Z,85.30
2019-03-03T20:03:09.473Z,86.10
2019-03-03T20:05:57.709Z,86.00
2019-03-03T20:08:45.790Z,85.70
2019-03-03T20:11:33.535Z,86.10
2019-03-03T20:14:20.905Z,86.60
2019-03-03T20:17:08.333Z,86.80
2019-03-03T20:19:56.058Z,87.10
2019-03-03T20:22:44.877Z,87.60
2019-03-03T20:25:32.645Z,87.90
2019-03-03T20:28:20.515Z,88.20
2019-03-03T20:31:08.269Z,88.50
2019-03-03T20:33:56.029Z,90.00
2019-03-03T20:36:43.424Z,89.70
2019-03-03T20:39:31.445Z,89.50
2019-03-03T20:42:19.182Z,89.50
2019-03-03T20:45:08.953Z,89.70
2019-03-03T20:47:57.159Z,90.00
2019-03-03T20:50:44.737Z,90.00
2019-03-03T20:53:32.666Z,90.60
2019-03-03T20:56:20.281Z,91.10
2019-03-03T20:59:07.727Z,91.10
2019-03-03T21:01:55.488Z,91.10
2019-03-03T21:04:43.318Z,91.20
2019-03-03T21:07:31.080Z,91.20
2019-03-03T21:10:20.314Z,91.30
2019-03-03T21:13:08.170Z,91.30
2019-03-03T21:15:55.722Z,91.40
2019-03-03T21:18:43.170Z,91.20
2019-03-03T21:21:31.169Z,91.30
2019-03-03T21:24:18.759Z,91.40
2019-03-03T21:27:06.067Z,91.50
2019-03-03T21:29:53.324Z,91.30
2019-03-03T21:32:40.597Z,91.60
2019-03-03T21:35:28.343Z,91.50
2019-03-03T21:38:15.941Z,91.80
2019-03-03T21:41:03.203Z,91.70
2019-03-03T21:43:51.202Z,91.80
2019-03-03T21:46:38.625Z,91.70
2019-03-03T21:49:26.245Z,91.70
2019-03-03T21:52:13.755Z,91.70
2019-03-03T21:55:01.265Z,91.80
2019-03-03T21:57:48.560Z,91.70
2019-03-03T22:00:38.281Z,91.90
2019-03-03T22:03:25.879Z,92.10
2019-03-03T22:06:13.834Z,92.00
2019-03-03T22:09:04.675Z,92.20
2019-03-03T22:11:53.699Z,92.30
2019-03-03T22:14:42.877Z,92.30
2019-03-03T22:17:36.801Z,92.30
2019-03-03T22:20:24.852Z,92.30
2019-03-03T22:23:12.692Z,92.20
2019-03-03T22:26:01.989Z,92.30
2019-03-03T22:28:52.319Z,92.20
2019-03-03T22:31:40.660Z,92.20
2019-03-03T22:34:28.637Z,92.10
2019-03-03T22:37:17.902Z,91.90
2019-03-03T22:40:12.366Z,91.90
2019-03-03T22:43:01.427Z,92.10
2019-03-03T22:45:52.913Z,91.90
2019-03-03T22:48:40.872Z,91.90
2019-03-03T22:51:30.400Z,91.90
2019-03-03T22:54:18.187Z,91.80
2019-03-03T22:57:06.211Z,91.70
2019-03-03T22:59:53.854Z,91.80
2019-03-03T23:02:42.124Z,91.70
2019-03-03T23:05:41.244Z,91.70
2019-03-03T23:08:47.286Z,92.00
2019-03-03T23:12:05.211Z,92.00
2019-03-03T23:15:05.776Z,92.00
2019-03-03T23:18:15.684Z,92.20
2019-03-03T23:21:41.488Z,92.40
2019-03-03T23:24:57.646Z,92.60
2019-03-03T23:27:45.424Z,92.60
2019-03-03T23:30:33.378Z,92.80
2019-03-03T23:33:21.581Z,93.00
2019-03-03T23:36:09.292Z,92.80
2019-03-03T23:38:57.871Z,92.90
2019-03-03T23:41:45.709Z,92.90
2019-03-03T23:44:37.810Z,93.00
2019-03-03T23:47:25.845Z,92.90
2019-03-03T23:50:13.692Z,93.00
2019-03-03T23:53:01.767Z,93.00
2019-03-03T23:55:50.428Z,92.90
2019-03-03T23:58:38.272Z,92.90
